ADDS METAR Data INFO
IDs: Format: Raw Decoded Include TAF

Data at: 0036 UTC 21 Jan 2018

METAR for:KAXH (Houston/SW Arpt, TX, US)
Text:KAXH 210015Z AUTO 16004KT 10SM OVC065 19/18 A3004 RMK AO2 T01930180
Temperature: 19.3°C ( 67°F)
Dewpoint: 18.0°C ( 64°F) [RH = 92%]
Pressure (altimeter):30.04 inches Hg (1017.4 mb)
Winds:from the SSE (160 degrees) at 5 MPH (4 knots; 2.1 m/s)
Visibility:10 or more sm (16+ km)
Ceiling:6500 feet AGL
Clouds: overcast cloud deck at 6500 feet AGL
QC Flag:automated observation with no human augmentation

TAF for:KAXH (Houston/SW Arpt, TX, US)
Text:No data found